sensor_id;sensor_type;location;lat;lon;timestamp;P1;durP1;ratioP1;P2;durP2;ratioP2
52776;SDS011;38656;54.260;20.822;2023-06-22T00:02:00;23.13;;;21.33;;
52776;SDS011;38656;54.260;20.822;2023-06-22T00:04:27;23.55;;;21.33;;
52776;SDS011;38656;54.260;20.822;2023-06-22T00:06:53;22.20;;;20.35;;
52776;SDS011;38656;54.260;20.822;2023-06-22T00:09:19;24.15;;;22.17;;
52776;SDS011;38656;54.260;20.822;2023-06-22T00:11:45;23.05;;;20.83;;
52776;SDS011;38656;54.260;20.822;2023-06-22T00:14:11;23.20;;;21.20;;
52776;SDS011;38656;54.260;20.822;2023-06-22T00:16:37;22.08;;;20.05;;
52776;SDS011;38656;54.260;20.822;2023-06-22T00:19:03;20.33;;;18.45;;
52776;SDS011;38656;54.260;20.822;2023-06-22T00:21:30;19.75;;;18.15;;
52776;SDS011;38656;54.260;20.822;2023-06-22T00:23:56;19.02;;;17.55;;
52776;SDS011;38656;54.260;20.822;2023-06-22T00:26:23;19.05;;;17.55;;
52776;SDS011;38656;54.260;20.822;2023-06-22T00:28:49;21.40;;;19.50;;
52776;SDS011;38656;54.260;20.822;2023-06-22T00:31:15;19.13;;;17.58;;
52776;SDS011;38656;54.260;20.822;2023-06-22T00:33:42;18.67;;;16.92;;
52776;SDS011;38656;54.260;20.822;2023-06-22T00:36:08;20.58;;;18.73;;
52776;SDS011;38656;54.260;20.822;2023-06-22T00:38:38;20.77;;;18.88;;
52776;SDS011;38656;54.260;20.822;2023-06-22T00:41:05;20.90;;;18.80;;
52776;SDS011;38656;54.260;20.822;2023-06-22T00:43:31;19.50;;;17.95;;
52776;SDS011;38656;54.260;20.822;2023-06-22T00:45:57;21.25;;;19.33;;
52776;SDS011;38656;54.260;20.822;2023-06-22T00:48:24;21.85;;;20.23;;
52776;SDS011;38656;54.260;20.822;2023-06-22T00:50:50;23.60;;;21.73;;
52776;SDS011;38656;54.260;20.822;2023-06-22T00:53:18;27.30;;;24.88;;
52776;SDS011;38656;54.260;20.822;2023-06-22T00:55:45;28.02;;;25.38;;
52776;SDS011;38656;54.260;20.822;2023-06-22T00:58:16;29.05;;;26.55;;
52776;SDS011;38656;54.260;20.822;2023-06-22T01:00:46;33.58;;;28.50;;
52776;SDS011;38656;54.260;20.822;2023-06-22T01:03:13;31.65;;;28.88;;
52776;SDS011;38656;54.260;20.822;2023-06-22T01:05:41;29.63;;;27.13;;
52776;SDS011;38656;54.260;20.822;2023-06-22T01:08:46;29.95;;;27.50;;
52776;SDS011;38656;54.260;20.822;2023-06-22T01:11:16;28.88;;;26.48;;
52776;SDS011;38656;54.260;20.822;2023-06-22T01:13:52;30.85;;;28.50;;
52776;SDS011;38656;54.260;20.822;2023-06-22T01:16:27;29.55;;;27.00;;
52776;SDS011;38656;54.260;20.822;2023-06-22T01:18:57;29.85;;;27.27;;
52776;SDS011;38656;54.260;20.822;2023-06-22T01:21:28;29.88;;;27.08;;
52776;SDS011;38656;54.260;20.822;2023-06-22T01:29:17;32.42;;;29.75;;
52776;SDS011;38656;54.260;20.822;2023-06-22T01:31:46;32.50;;;30.00;;
52776;SDS011;38656;54.260;20.822;2023-06-22T01:34:15;33.08;;;30.27;;
52776;SDS011;38656;54.260;20.822;2023-06-22T01:36:42;32.40;;;29.80;;
52776;SDS011;38656;54.260;20.822;2023-06-22T01:39:09;30.23;;;27.77;;
52776;SDS011;38656;54.260;20.822;2023-06-22T01:41:37;29.90;;;27.45;;
52776;SDS011;38656;54.260;20.822;2023-06-22T01:44:07;30.85;;;28.33;;
52776;SDS011;38656;54.260;20.822;2023-06-22T01:46:36;33.05;;;30.38;;
52776;SDS011;38656;54.260;20.822;2023-06-22T01:49:03;32.95;;;30.00;;
52776;SDS011;38656;54.260;20.822;2023-06-22T01:51:31;30.63;;;28.02;;
52776;SDS011;38656;54.260;20.822;2023-06-22T01:53:57;31.08;;;28.38;;
52776;SDS011;38656;54.260;20.822;2023-06-22T01:56:23;30.35;;;27.80;;
52776;SDS011;38656;54.260;20.822;2023-06-22T01:58:55;33.75;;;30.48;;
52776;SDS011;38656;54.260;20.822;2023-06-22T02:01:36;33.95;;;30.63;;
52776;SDS011;38656;54.260;20.822;2023-06-22T02:04:25;32.80;;;30.00;;
52776;SDS011;38656;54.260;20.822;2023-06-22T02:06:55;34.47;;;31.23;;
52776;SDS011;38656;54.260;20.822;2023-06-22T02:09:25;36.25;;;31.55;;
52776;SDS011;38656;54.260;20.822;2023-06-22T02:11:55;34.83;;;31.75;;
52776;SDS011;38656;54.260;20.822;2023-06-22T02:14:23;36.28;;;33.10;;
52776;SDS011;38656;54.260;20.822;2023-06-22T02:16:50;33.35;;;30.45;;
52776;SDS011;38656;54.260;20.822;2023-06-22T02:19:17;33.78;;;30.77;;
52776;SDS011;38656;54.260;20.822;2023-06-22T02:21:48;31.55;;;29.05;;
52776;SDS011;38656;54.260;20.822;2023-06-22T02:24:14;32.45;;;29.65;;
52776;SDS011;38656;54.260;20.822;2023-06-22T02:26:41;31.88;;;29.33;;
52776;SDS011;38656;54.260;20.822;2023-06-22T02:29:10;32.10;;;29.15;;
52776;SDS011;38656;54.260;20.822;2023-06-22T02:31:36;33.78;;;30.23;;
52776;SDS011;38656;54.260;20.822;2023-06-22T02:34:02;31.30;;;28.65;;
52776;SDS011;38656;54.260;20.822;2023-06-22T02:36:28;29.65;;;27.27;;
52776;SDS011;38656;54.260;20.822;2023-06-22T02:38:55;30.60;;;27.60;;
52776;SDS011;38656;54.260;20.822;2023-06-22T02:41:23;31.77;;;29.23;;
52776;SDS011;38656;54.260;20.822;2023-06-22T02:43:50;30.48;;;27.88;;
52776;SDS011;38656;54.260;20.822;2023-06-22T02:46:16;29.33;;;26.92;;
52776;SDS011;38656;54.260;20.822;2023-06-22T02:48:42;26.80;;;24.60;;
52776;SDS011;38656;54.260;20.822;2023-06-22T02:51:08;27.60;;;25.30;;
52776;SDS011;38656;54.260;20.822;2023-06-22T02:53:34;28.20;;;25.77;;
52776;SDS011;38656;54.260;20.822;2023-06-22T02:56:03;29.10;;;26.35;;
52776;SDS011;38656;54.260;20.822;2023-06-22T02:58:31;29.40;;;26.65;;
52776;SDS011;38656;54.260;20.822;2023-06-22T03:01:04;27.95;;;25.58;;
52776;SDS011;38656;54.260;20.822;2023-06-22T03:03:30;28.63;;;26.13;;
52776;SDS011;38656;54.260;20.822;2023-06-22T03:05:57;29.75;;;27.25;;
52776;SDS011;38656;54.260;20.822;2023-06-22T03:08:23;30.52;;;27.88;;
52776;SDS011;38656;54.260;20.822;2023-06-22T03:10:49;32.15;;;29.25;;
52776;SDS011;38656;54.260;20.822;2023-06-22T03:13:15;31.88;;;29.27;;
52776;SDS011;38656;54.260;20.822;2023-06-22T03:15:41;30.98;;;28.42;;
52776;SDS011;38656;54.260;20.822;2023-06-22T03:18:08;30.40;;;28.05;;
52776;SDS011;38656;54.260;20.822;2023-06-22T03:20:34;28.77;;;26.23;;
52776;SDS011;38656;54.260;20.822;2023-06-22T03:23:00;28.92;;;26.45;;
52776;SDS011;38656;54.260;20.822;2023-06-22T03:25:26;26.70;;;24.48;;
52776;SDS011;38656;54.260;20.822;2023-06-22T03:27:52;26.70;;;24.50;;
52776;SDS011;38656;54.260;20.822;2023-06-22T03:30:18;25.92;;;23.77;;
52776;SDS011;38656;54.260;20.822;2023-06-22T03:32:44;24.88;;;22.70;;
52776;SDS011;38656;54.260;20.822;2023-06-22T03:35:11;26.20;;;23.83;;
52776;SDS011;38656;54.260;20.822;2023-06-22T03:37:39;25.70;;;23.42;;
52776;SDS011;38656;54.260;20.822;2023-06-22T03:40:05;27.30;;;25.10;;
52776;SDS011;38656;54.260;20.822;2023-06-22T03:42:33;27.27;;;24.88;;
52776;SDS011;38656;54.260;20.822;2023-06-22T03:45:02;25.33;;;23.38;;
52776;SDS011;38656;54.260;20.822;2023-06-22T03:47:29;25.08;;;22.98;;
52776;SDS011;38656;54.260;20.822;2023-06-22T03:49:55;26.27;;;24.13;;
52776;SDS011;38656;54.260;20.822;2023-06-22T03:52:22;25.05;;;22.85;;
52776;SDS011;38656;54.260;20.822;2023-06-22T03:54:48;23.63;;;21.90;;
52776;SDS011;38656;54.260;20.822;2023-06-22T03:57:14;24.67;;;22.45;;
52776;SDS011;38656;54.260;20.822;2023-06-22T03:59:40;26.38;;;24.23;;
52776;SDS011;38656;54.260;20.822;2023-06-22T04:02:06;26.08;;;24.02;;
52776;SDS011;38656;54.260;20.822;2023-06-22T04:04:33;25.45;;;23.27;;
52776;SDS011;38656;54.260;20.822;2023-06-22T04:07:00;27.88;;;25.35;;
52776;SDS011;38656;54.260;20.822;2023-06-22T04:09:26;29.15;;;26.75;;
52776;SDS011;38656;54.260;20.822;2023-06-22T04:11:52;31.55;;;28.73;;
52776;SDS011;38656;54.260;20.822;2023-06-22T04:14:18;29.45;;;27.15;;
52776;SDS011;38656;54.260;20.822;2023-06-22T04:16:44;27.75;;;25.15;;
52776;SDS011;38656;54.260;20.822;2023-06-22T04:19:11;27.50;;;25.13;;
52776;SDS011;38656;54.260;20.822;2023-06-22T04:21:41;27.63;;;25.30;;
52776;SDS011;38656;54.260;20.822;2023-06-22T04:24:09;27.48;;;24.85;;
52776;SDS011;38656;54.260;20.822;2023-06-22T04:26:36;26.80;;;24.63;;
52776;SDS011;38656;54.260;20.822;2023-06-22T04:29:03;25.33;;;22.95;;
52776;SDS011;38656;54.260;20.822;2023-06-22T04:31:33;24.73;;;22.80;;
52776;SDS011;38656;54.260;20.822;2023-06-22T04:34:06;24.40;;;22.30;;
52776;SDS011;38656;54.260;20.822;2023-06-22T04:36:34;24.00;;;22.10;;
52776;SDS011;38656;54.260;20.822;2023-06-22T04:39:07;24.00;;;22.10;;
52776;SDS011;38656;54.260;20.822;2023-06-22T04:41:35;23.60;;;21.55;;
52776;SDS011;38656;54.260;20.822;2023-06-22T04:44:17;22.80;;;21.10;;
52776;SDS011;38656;54.260;20.822;2023-06-22T04:46:59;22.27;;;20.45;;
52776;SDS011;38656;54.260;20.822;2023-06-22T04:49:28;21.92;;;20.02;;
52776;SDS011;38656;54.260;20.822;2023-06-22T04:51:58;22.80;;;20.75;;
52776;SDS011;38656;54.260;20.822;2023-06-22T04:54:24;23.05;;;20.92;;
52776;SDS011;38656;54.260;20.822;2023-06-22T04:56:51;20.77;;;18.77;;
52776;SDS011;38656;54.260;20.822;2023-06-22T04:59:23;20.77;;;18.60;;
52776;SDS011;38656;54.260;20.822;2023-06-22T05:01:53;20.55;;;18.58;;
52776;SDS011;38656;54.260;20.822;2023-06-22T05:04:20;22.95;;;18.80;;
52776;SDS011;38656;54.260;20.822;2023-06-22T05:06:48;20.40;;;18.70;;
52776;SDS011;38656;54.260;20.822;2023-06-22T05:09:14;20.83;;;18.92;;
52776;SDS011;38656;54.260;20.822;2023-06-22T05:11:41;20.88;;;18.98;;
52776;SDS011;38656;54.260;20.822;2023-06-22T05:14:07;17.98;;;16.38;;
52776;SDS011;38656;54.260;20.822;2023-06-22T05:16:34;19.58;;;17.90;;
52776;SDS011;38656;54.260;20.822;2023-06-22T05:19:01;21.52;;;18.27;;
52776;SDS011;38656;54.260;20.822;2023-06-22T05:21:28;18.73;;;16.60;;
52776;SDS011;38656;54.260;20.822;2023-06-22T05:23:56;19.17;;;17.20;;
52776;SDS011;38656;54.260;20.822;2023-06-22T05:26:25;17.77;;;15.98;;
52776;SDS011;38656;54.260;20.822;2023-06-22T05:28:52;16.42;;;15.02;;
52776;SDS011;38656;54.260;20.822;2023-06-22T05:31:19;17.90;;;16.40;;
52776;SDS011;38656;54.260;20.822;2023-06-22T05:33:46;15.52;;;14.10;;
52776;SDS011;38656;54.260;20.822;2023-06-22T05:36:14;16.95;;;14.20;;
52776;SDS011;38656;54.260;20.822;2023-06-22T05:38:40;14.32;;;13.07;;
52776;SDS011;38656;54.260;20.822;2023-06-22T05:41:07;13.05;;;11.85;;
52776;SDS011;38656;54.260;20.822;2023-06-22T05:43:34;14.15;;;12.88;;
52776;SDS011;38656;54.260;20.822;2023-06-22T05:46:01;14.15;;;12.85;;
52776;SDS011;38656;54.260;20.822;2023-06-22T05:48:27;14.40;;;11.85;;
52776;SDS011;38656;54.260;20.822;2023-06-22T05:50:53;12.93;;;11.80;;
52776;SDS011;38656;54.260;20.822;2023-06-22T05:53:20;13.70;;;12.32;;
52776;SDS011;38656;54.260;20.822;2023-06-22T05:55:46;12.70;;;11.52;;
52776;SDS011;38656;54.260;20.822;2023-06-22T05:58:12;13.48;;;12.27;;
52776;SDS011;38656;54.260;20.822;2023-06-22T06:00:39;13.25;;;12.05;;
52776;SDS011;38656;54.260;20.822;2023-06-22T06:03:06;14.13;;;12.68;;
52776;SDS011;38656;54.260;20.822;2023-06-22T06:05:33;13.13;;;11.95;;
52776;SDS011;38656;54.260;20.822;2023-06-22T06:08:03;15.20;;;11.23;;
52776;SDS011;38656;54.260;20.822;2023-06-22T06:10:31;13.35;;;10.82;;
52776;SDS011;38656;54.260;20.822;2023-06-22T06:12:58;14.63;;;10.18;;
52776;SDS011;38656;54.260;20.822;2023-06-22T06:15:26;11.90;;;10.70;;
52776;SDS011;38656;54.260;20.822;2023-06-22T06:17:53;11.88;;;10.65;;
52776;SDS011;38656;54.260;20.822;2023-06-22T06:20:22;11.05;;;9.73;;
52776;SDS011;38656;54.260;20.822;2023-06-22T06:22:50;11.82;;;10.32;;
52776;SDS011;38656;54.260;20.822;2023-06-22T06:25:16;11.93;;;9.13;;
52776;SDS011;38656;54.260;20.822;2023-06-22T06:27:45;11.43;;;7.85;;
52776;SDS011;38656;54.260;20.822;2023-06-22T06:30:13;10.93;;;7.97;;
52776;SDS011;38656;54.260;20.822;2023-06-22T06:32:41;9.15;;;7.93;;
52776;SDS011;38656;54.260;20.822;2023-06-22T06:35:08;10.52;;;8.20;;
52776;SDS011;38656;54.260;20.822;2023-06-22T06:37:36;13.52;;;8.25;;
52776;SDS011;38656;54.260;20.822;2023-06-22T06:40:04;9.65;;;7.88;;
52776;SDS011;38656;54.260;20.822;2023-06-22T06:42:35;14.65;;;8.85;;
52776;SDS011;38656;54.260;20.822;2023-06-22T06:45:03;8.63;;;7.63;;
52776;SDS011;38656;54.260;20.822;2023-06-22T06:47:30;14.70;;;8.32;;
52776;SDS011;38656;54.260;20.822;2023-06-22T06:49:56;9.38;;;7.90;;
52776;SDS011;38656;54.260;20.822;2023-06-22T06:52:23;10.38;;;8.38;;
52776;SDS011;38656;54.260;20.822;2023-06-22T06:54:49;9.60;;;8.60;;
52776;SDS011;38656;54.260;20.822;2023-06-22T06:57:17;11.80;;;8.85;;
52776;SDS011;38656;54.260;20.822;2023-06-22T06:59:45;10.65;;;7.60;;
52776;SDS011;38656;54.260;20.822;2023-06-22T07:02:11;11.45;;;8.15;;
52776;SDS011;38656;54.260;20.822;2023-06-22T07:04:37;10.10;;;8.82;;
52776;SDS011;38656;54.260;20.822;2023-06-22T07:07:04;14.68;;;10.25;;
52776;SDS011;38656;54.260;20.822;2023-06-22T07:09:31;12.32;;;11.13;;
52776;SDS011;38656;54.260;20.822;2023-06-22T07:11:57;12.52;;;10.52;;
52776;SDS011;38656;54.260;20.822;2023-06-22T07:14:23;9.90;;;8.98;;
52776;SDS011;38656;54.260;20.822;2023-06-22T07:16:49;13.43;;;8.07;;
52776;SDS011;38656;54.260;20.822;2023-06-22T07:19:15;10.25;;;8.70;;
52776;SDS011;38656;54.260;20.822;2023-06-22T07:21:49;11.70;;;9.00;;
52776;SDS011;38656;54.260;20.822;2023-06-22T07:24:15;9.02;;;8.13;;
52776;SDS011;38656;54.260;20.822;2023-06-22T07:26:41;9.40;;;8.50;;
52776;SDS011;38656;54.260;20.822;2023-06-22T07:29:11;11.07;;;8.88;;
52776;SDS011;38656;54.260;20.822;2023-06-22T07:31:37;13.18;;;8.82;;
52776;SDS011;38656;54.260;20.822;2023-06-22T07:34:05;14.30;;;10.45;;
52776;SDS011;38656;54.260;20.822;2023-06-22T07:36:31;8.73;;;7.88;;
52776;SDS011;38656;54.260;20.822;2023-06-22T07:38:57;14.27;;;8.98;;
52776;SDS011;38656;54.260;20.822;2023-06-22T07:41:23;8.23;;;7.15;;
52776;SDS011;38656;54.260;20.822;2023-06-22T07:43:50;11.23;;;8.88;;
52776;SDS011;38656;54.260;20.822;2023-06-22T07:46:16;10.20;;;7.15;;
52776;SDS011;38656;54.260;20.822;2023-06-22T07:48:42;10.05;;;7.38;;
52776;SDS011;38656;54.260;20.822;2023-06-22T07:51:09;8.93;;;7.75;;
52776;SDS011;38656;54.260;20.822;2023-06-22T07:53:39;10.73;;;7.85;;
52776;SDS011;38656;54.260;20.822;2023-06-22T07:56:06;9.52;;;8.60;;
52776;SDS011;38656;54.260;20.822;2023-06-22T07:58:32;8.98;;;7.50;;
52776;SDS011;38656;54.260;20.822;2023-06-22T08:00:59;11.10;;;8.73;;
52776;SDS011;38656;54.260;20.822;2023-06-22T08:03:25;9.82;;;6.90;;
52776;SDS011;38656;54.260;20.822;2023-06-22T08:05:51;8.55;;;7.03;;
52776;SDS011;38656;54.260;20.822;2023-06-22T08:08:17;10.23;;;6.45;;
52776;SDS011;38656;54.260;20.822;2023-06-22T08:10:43;8.13;;;6.25;;
52776;SDS011;38656;54.260;20.822;2023-06-22T08:13:10;7.95;;;6.60;;
52776;SDS011;38656;54.260;20.822;2023-06-22T08:15:36;7.72;;;6.45;;
52776;SDS011;38656;54.260;20.822;2023-06-22T08:18:02;7.88;;;5.75;;
52776;SDS011;38656;54.260;20.822;2023-06-22T08:20:28;6.80;;;5.47;;
52776;SDS011;38656;54.260;20.822;2023-06-22T08:22:55;16.75;;;5.30;;
52776;SDS011;38656;54.260;20.822;2023-06-22T08:25:23;8.18;;;5.57;;
52776;SDS011;38656;54.260;20.822;2023-06-22T08:27:49;8.57;;;6.72;;
52776;SDS011;38656;54.260;20.822;2023-06-22T08:30:16;5.65;;;4.95;;
52776;SDS011;38656;54.260;20.822;2023-06-22T08:32:43;9.85;;;5.35;;
52776;SDS011;38656;54.260;20.822;2023-06-22T08:35:09;7.00;;;4.38;;
52776;SDS011;38656;54.260;20.822;2023-06-22T08:37:36;4.80;;;4.40;;
52776;SDS011;38656;54.260;20.822;2023-06-22T08:40:04;9.27;;;4.82;;
52776;SDS011;38656;54.260;20.822;2023-06-22T08:42:40;6.03;;;4.68;;
52776;SDS011;38656;54.260;20.822;2023-06-22T08:45:06;11.70;;;4.63;;
52776;SDS011;38656;54.260;20.822;2023-06-22T08:47:33;8.60;;;4.60;;
52776;SDS011;38656;54.260;20.822;2023-06-22T08:49:59;6.32;;;3.85;;
52776;SDS011;38656;54.260;20.822;2023-06-22T08:52:28;8.88;;;3.40;;
52776;SDS011;38656;54.260;20.822;2023-06-22T08:54:54;4.75;;;3.90;;
52776;SDS011;38656;54.260;20.822;2023-06-22T08:57:21;5.05;;;3.78;;
52776;SDS011;38656;54.260;20.822;2023-06-22T08:59:47;4.70;;;3.90;;
52776;SDS011;38656;54.260;20.822;2023-06-22T09:02:13;5.93;;;3.60;;
52776;SDS011;38656;54.260;20.822;2023-06-22T09:04:39;6.63;;;3.42;;
52776;SDS011;38656;54.260;20.822;2023-06-22T09:07:06;5.05;;;3.67;;
52776;SDS011;38656;54.260;20.822;2023-06-22T09:09:32;4.22;;;3.08;;
52776;SDS011;38656;54.260;20.822;2023-06-22T09:11:58;6.25;;;3.17;;
52776;SDS011;38656;54.260;20.822;2023-06-22T09:14:24;4.47;;;2.63;;
52776;SDS011;38656;54.260;20.822;2023-06-22T09:16:51;2.90;;;2.70;;
52776;SDS011;38656;54.260;20.822;2023-06-22T09:19:17;2.88;;;2.40;;
52776;SDS011;38656;54.260;20.822;2023-06-22T09:21:43;4.07;;;2.95;;
52776;SDS011;38656;54.260;20.822;2023-06-22T09:24:09;6.25;;;3.40;;
52776;SDS011;38656;54.260;20.822;2023-06-22T09:26:36;4.60;;;3.10;;
52776;SDS011;38656;54.260;20.822;2023-06-22T09:29:04;4.47;;;2.50;;
52776;SDS011;38656;54.260;20.822;2023-06-22T09:31:31;5.85;;;3.25;;
52776;SDS011;38656;54.260;20.822;2023-06-22T09:33:57;5.47;;;2.90;;
52776;SDS011;38656;54.260;20.822;2023-06-22T09:36:23;6.07;;;3.20;;
52776;SDS011;38656;54.260;20.822;2023-06-22T09:38:50;5.97;;;2.38;;
52776;SDS011;38656;54.260;20.822;2023-06-22T09:41:20;4.40;;;2.78;;
52776;SDS011;38656;54.260;20.822;2023-06-22T09:43:47;6.10;;;3.00;;
52776;SDS011;38656;54.260;20.822;2023-06-22T09:46:16;7.22;;;2.65;;
52776;SDS011;38656;54.260;20.822;2023-06-22T09:48:43;3.17;;;2.28;;
52776;SDS011;38656;54.260;20.822;2023-06-22T09:51:09;5.22;;;2.30;;
52776;SDS011;38656;54.260;20.822;2023-06-22T09:53:35;3.53;;;2.35;;
52776;SDS011;38656;54.260;20.822;2023-06-22T09:56:02;5.72;;;2.70;;
52776;SDS011;38656;54.260;20.822;2023-06-22T09:58:28;4.38;;;2.60;;
52776;SDS011;38656;54.260;20.822;2023-06-22T10:00:54;5.40;;;2.70;;
52776;SDS011;38656;54.260;20.822;2023-06-22T10:03:21;5.38;;;2.90;;
52776;SDS011;38656;54.260;20.822;2023-06-22T10:05:47;3.65;;;2.42;;
52776;SDS011;38656;54.260;20.822;2023-06-22T10:08:13;4.40;;;2.58;;
52776;SDS011;38656;54.260;20.822;2023-06-22T10:10:40;5.82;;;2.88;;
52776;SDS011;38656;54.260;20.822;2023-06-22T10:13:09;4.65;;;2.88;;
52776;SDS011;38656;54.260;20.822;2023-06-22T10:15:36;5.60;;;3.00;;
52776;SDS011;38656;54.260;20.822;2023-06-22T10:18:03;6.30;;;2.80;;
52776;SDS011;38656;54.260;20.822;2023-06-22T10:20:30;9.13;;;2.90;;
52776;SDS011;38656;54.260;20.822;2023-06-22T10:22:56;4.78;;;3.13;;
52776;SDS011;38656;54.260;20.822;2023-06-22T10:25:22;5.10;;;2.63;;
52776;SDS011;38656;54.260;20.822;2023-06-22T10:27:48;4.40;;;2.92;;
52776;SDS011;38656;54.260;20.822;2023-06-22T10:30:15;4.80;;;2.92;;
52776;SDS011;38656;54.260;20.822;2023-06-22T10:32:41;2.90;;;2.47;;
52776;SDS011;38656;54.260;20.822;2023-06-22T10:35:08;4.45;;;2.35;;
52776;SDS011;38656;54.260;20.822;2023-06-22T10:37:38;6.03;;;2.70;;
52776;SDS011;38656;54.260;20.822;2023-06-22T10:40:05;4.35;;;2.65;;
52776;SDS011;38656;54.260;20.822;2023-06-22T10:42:33;9.13;;;3.00;;
52776;SDS011;38656;54.260;20.822;2023-06-22T10:44:59;4.10;;;2.95;;
52776;SDS011;38656;54.260;20.822;2023-06-22T10:47:25;3.97;;;2.50;;
52776;SDS011;38656;54.260;20.822;2023-06-22T10:49:51;4.10;;;2.55;;
52776;SDS011;38656;54.260;20.822;2023-06-22T10:52:17;3.22;;;2.33;;
52776;SDS011;38656;54.260;20.822;2023-06-22T10:54:43;3.25;;;2.67;;
52776;SDS011;38656;54.260;20.822;2023-06-22T10:57:10;4.95;;;2.95;;
52776;SDS011;38656;54.260;20.822;2023-06-22T10:59:36;5.10;;;2.33;;
52776;SDS011;38656;54.260;20.822;2023-06-22T11:02:02;4.15;;;2.30;;
52776;SDS011;38656;54.260;20.822;2023-06-22T11:04:28;5.35;;;2.25;;
52776;SDS011;38656;54.260;20.822;2023-06-22T11:06:54;3.40;;;2.28;;
52776;SDS011;38656;54.260;20.822;2023-06-22T11:09:21;4.32;;;2.40;;
52776;SDS011;38656;54.260;20.822;2023-06-22T11:11:47;4.97;;;2.40;;
52776;SDS011;38656;54.260;20.822;2023-06-22T11:14:15;3.33;;;2.22;;
52776;SDS011;38656;54.260;20.822;2023-06-22T11:16:41;3.53;;;2.25;;
52776;SDS011;38656;54.260;20.822;2023-06-22T11:19:07;3.95;;;2.33;;
52776;SDS011;38656;54.260;20.822;2023-06-22T11:21:34;3.63;;;2.55;;
52776;SDS011;38656;54.260;20.822;2023-06-22T11:24:00;8.55;;;3.30;;
52776;SDS011;38656;54.260;20.822;2023-06-22T11:26:26;4.32;;;2.13;;
52776;SDS011;38656;54.260;20.822;2023-06-22T11:28:52;4.32;;;2.67;;
52776;SDS011;38656;54.260;20.822;2023-06-22T11:31:19;3.00;;;2.13;;
52776;SDS011;38656;54.260;20.822;2023-06-22T11:33:45;6.82;;;2.28;;
52776;SDS011;38656;54.260;20.822;2023-06-22T11:36:12;3.38;;;2.55;;
52776;SDS011;38656;54.260;20.822;2023-06-22T11:38:39;4.20;;;2.50;;
52776;SDS011;38656;54.260;20.822;2023-06-22T11:41:06;3.45;;;2.30;;
52776;SDS011;38656;54.260;20.822;2023-06-22T11:43:33;4.68;;;2.38;;
52776;SDS011;38656;54.260;20.822;2023-06-22T11:46:00;2.47;;;2.28;;
52776;SDS011;38656;54.260;20.822;2023-06-22T11:48:28;5.53;;;2.65;;
52776;SDS011;38656;54.260;20.822;2023-06-22T11:50:54;2.22;;;2.03;;
52776;SDS011;38656;54.260;20.822;2023-06-22T11:53:21;5.18;;;2.50;;
52776;SDS011;38656;54.260;20.822;2023-06-22T11:55:49;2.70;;;1.95;;
52776;SDS011;38656;54.260;20.822;2023-06-22T11:58:15;3.90;;;2.10;;
52776;SDS011;38656;54.260;20.822;2023-06-22T12:00:41;3.17;;;2.50;;
52776;SDS011;38656;54.260;20.822;2023-06-22T12:03:08;3.75;;;2.28;;
52776;SDS011;38656;54.260;20.822;2023-06-22T12:05:34;3.28;;;2.17;;
52776;SDS011;38656;54.260;20.822;2023-06-22T12:08:02;3.60;;;1.90;;
52776;SDS011;38656;54.260;20.822;2023-06-22T12:10:28;3.45;;;2.40;;
52776;SDS011;38656;54.260;20.822;2023-06-22T12:12:54;2.55;;;1.88;;
52776;SDS011;38656;54.260;20.822;2023-06-22T12:15:22;3.95;;;2.95;;
52776;SDS011;38656;54.260;20.822;2023-06-22T12:17:49;3.13;;;2.13;;
52776;SDS011;38656;54.260;20.822;2023-06-22T12:20:15;5.53;;;2.10;;
52776;SDS011;38656;54.260;20.822;2023-06-22T12:22:41;6.05;;;2.22;;
52776;SDS011;38656;54.260;20.822;2023-06-22T12:25:08;9.38;;;2.38;;
52776;SDS011;38656;54.260;20.822;2023-06-22T12:27:35;2.72;;;2.47;;
52776;SDS011;38656;54.260;20.822;2023-06-22T12:30:02;2.60;;;2.22;;
52776;SDS011;38656;54.260;20.822;2023-06-22T12:32:29;3.08;;;2.28;;
52776;SDS011;38656;54.260;20.822;2023-06-22T12:34:55;6.22;;;2.10;;
52776;SDS011;38656;54.260;20.822;2023-06-22T12:37:22;3.58;;;2.35;;
52776;SDS011;38656;54.260;20.822;2023-06-22T12:39:48;4.72;;;2.40;;
52776;SDS011;38656;54.260;20.822;2023-06-22T12:42:15;2.88;;;2.42;;
52776;SDS011;38656;54.260;20.822;2023-06-22T12:44:42;6.22;;;2.42;;
52776;SDS011;38656;54.260;20.822;2023-06-22T12:47:11;2.78;;;2.30;;
52776;SDS011;38656;54.260;20.822;2023-06-22T12:49:38;2.20;;;2.00;;
52776;SDS011;38656;54.260;20.822;2023-06-22T12:52:10;3.38;;;2.38;;
52776;SDS011;38656;54.260;20.822;2023-06-22T12:54:36;3.85;;;2.45;;
52776;SDS011;38656;54.260;20.822;2023-06-22T12:57:03;2.42;;;2.22;;
52776;SDS011;38656;54.260;20.822;2023-06-22T12:59:29;4.22;;;2.92;;
52776;SDS011;38656;54.260;20.822;2023-06-22T13:01:55;3.63;;;1.98;;
52776;SDS011;38656;54.260;20.822;2023-06-22T13:04:22;5.25;;;2.30;;
52776;SDS011;38656;54.260;20.822;2023-06-22T13:06:48;2.85;;;2.08;;
52776;SDS011;38656;54.260;20.822;2023-06-22T13:09:15;5.88;;;3.17;;
52776;SDS011;38656;54.260;20.822;2023-06-22T13:11:43;2.92;;;2.55;;
52776;SDS011;38656;54.260;20.822;2023-06-22T13:14:09;4.72;;;2.40;;
52776;SDS011;38656;54.260;20.822;2023-06-22T13:16:35;5.38;;;2.42;;
52776;SDS011;38656;54.260;20.822;2023-06-22T13:19:02;4.20;;;2.78;;
52776;SDS011;38656;54.260;20.822;2023-06-22T13:21:29;3.92;;;2.08;;
52776;SDS011;38656;54.260;20.822;2023-06-22T13:23:56;5.35;;;2.13;;
52776;SDS011;38656;54.260;20.822;2023-06-22T13:26:24;4.57;;;2.15;;
52776;SDS011;38656;54.260;20.822;2023-06-22T13:28:50;6.90;;;2.30;;
52776;SDS011;38656;54.260;20.822;2023-06-22T13:31:17;4.30;;;2.28;;
52776;SDS011;38656;54.260;20.822;2023-06-22T13:33:43;4.60;;;2.58;;
52776;SDS011;38656;54.260;20.822;2023-06-22T13:36:12;2.70;;;1.92;;
52776;SDS011;38656;54.260;20.822;2023-06-22T13:38:39;4.60;;;2.17;;
52776;SDS011;38656;54.260;20.822;2023-06-22T13:41:05;2.92;;;2.10;;
52776;SDS011;38656;54.260;20.822;2023-06-22T13:43:32;2.83;;;2.35;;
52776;SDS011;38656;54.260;20.822;2023-06-22T13:45:58;3.05;;;2.40;;
52776;SDS011;38656;54.260;20.822;2023-06-22T13:48:24;2.90;;;2.00;;
52776;SDS011;38656;54.260;20.822;2023-06-22T13:50:51;4.07;;;2.53;;
52776;SDS011;38656;54.260;20.822;2023-06-22T13:53:17;3.72;;;2.40;;
52776;SDS011;38656;54.260;20.822;2023-06-22T13:55:44;4.22;;;2.13;;
52776;SDS011;38656;54.260;20.822;2023-06-22T13:58:10;2.88;;;2.33;;
52776;SDS011;38656;54.260;20.822;2023-06-22T14:00:36;2.22;;;2.03;;
52776;SDS011;38656;54.260;20.822;2023-06-22T14:03:02;2.95;;;2.75;;
52776;SDS011;38656;54.260;20.822;2023-06-22T14:05:28;4.38;;;2.13;;
52776;SDS011;38656;54.260;20.822;2023-06-22T14:07:55;3.03;;;2.08;;
52776;SDS011;38656;54.260;20.822;2023-06-22T14:10:21;2.95;;;1.73;;
52776;SDS011;38656;54.260;20.822;2023-06-22T14:12:47;3.55;;;3.00;;
52776;SDS011;38656;54.260;20.822;2023-06-22T14:15:14;4.38;;;2.40;;
52776;SDS011;38656;54.260;20.822;2023-06-22T14:17:40;2.58;;;2.38;;
52776;SDS011;38656;54.260;20.822;2023-06-22T14:22:59;4.60;;;2.35;;
52776;SDS011;38656;54.260;20.822;2023-06-22T14:25:26;5.60;;;2.17;;
52776;SDS011;38656;54.260;20.822;2023-06-22T14:27:52;2.70;;;1.98;;
52776;SDS011;38656;54.260;20.822;2023-06-22T14:30:18;4.60;;;2.33;;